Lancaster, Illinois
Current Conditions -  °F | °C
As of 2:35 PM on Saturday 25 Oct 2014 (Local Time) from KAJG Reporting Station
Clear Clear  
Wind Chill: 27°   Ceiling: Unl
Heat Index: 27°   Visibility: 10mi
Dew Point: 11°   Wind: 8mph
Humidity: 37%   Direction: 300°WNW
Pressure: 29.98"   Gusts: NA
Location:  38.55°N, 87.87°W
Report Text: KAJG 251935Z AUTO 30007KT 10SM CLR 27/11 A2998 RMK AO2
Loading
Personal Weather Stations






























Interactive Weather Map
Tropical Storm Tracking
New forecast layout! Learn more

10-Day Weather Forecast

Advertisements
Track Severe Weather on mobile